createdAt,value
2018-12-17T00:00:54.197Z,94937.96
2018-12-17T00:03:29.111Z,94939.44
2018-12-17T00:06:04.868Z,94938.72
2018-12-17T00:08:38.769Z,94930.03
2018-12-17T00:11:12.686Z,94932.77
2018-12-17T00:13:48.529Z,94945.05
2018-12-17T00:16:24.052Z,94944.62
2018-12-17T00:18:58.631Z,94945.73
2018-12-17T00:21:33.206Z,94950.22
2018-12-17T00:24:09.300Z,94950.17
2018-12-17T00:26:43.600Z,94948.13
2018-12-17T00:29:17.947Z,94953.08
2018-12-17T00:31:51.572Z,94952.59
2018-12-17T00:34:27.764Z,94954.25
2018-12-17T00:37:01.828Z,94969.56
2018-12-17T00:39:38.176Z,94965.82
2018-12-17T00:42:12.476Z,94966.47
2018-12-17T00:44:47.608Z,94972.27
2018-12-17T00:47:22.452Z,94976.00
2018-12-17T00:49:56.688Z,94969.87
2018-12-17T00:52:30.931Z,94973.02
2018-12-17T00:55:05.208Z,94967.45
2018-12-17T00:57:39.379Z,94964.05
2018-12-17T01:00:12.767Z,94950.73
2018-12-17T01:02:47.204Z,94954.91
2018-12-17T01:05:21.014Z,94956.16
2018-12-17T01:07:55.001Z,94956.97
2018-12-17T01:10:28.813Z,94950.71
2018-12-17T01:13:04.765Z,94940.63
2018-12-17T01:15:39.301Z,94948.00
2018-12-17T01:18:13.549Z,94948.66
2018-12-17T01:20:47.645Z,94948.32
2018-12-17T01:23:21.429Z,94946.67
2018-12-17T01:25:54.956Z,94936.02
2018-12-17T01:28:28.041Z,94930.59
2018-12-17T01:31:03.629Z,94924.77
2018-12-17T01:33:39.270Z,94921.52
2018-12-17T01:36:14.028Z,94926.33
2018-12-17T01:38:48.111Z,94913.84
2018-12-17T01:41:23.910Z,94914.95
2018-12-17T01:43:58.654Z,94913.33
2018-12-17T01:46:32.115Z,94911.40
2018-12-17T01:49:04.408Z,94910.09
2018-12-17T01:51:38.729Z,94905.27
2018-12-17T01:54:13.074Z,94900.53
2018-12-17T01:56:47.828Z,94902.02
2018-12-17T01:59:22.475Z,94904.20
2018-12-17T02:01:57.302Z,94903.22
2018-12-17T02:04:31.473Z,94902.87
2018-12-17T02:07:05.080Z,94907.73
2018-12-17T02:09:37.605Z,94902.72
2018-12-17T02:12:11.312Z,94910.71
2018-12-17T02:14:44.780Z,94911.38
2018-12-17T02:17:24.387Z,94908.32
2018-12-17T02:19:58.556Z,94906.37
2018-12-17T02:22:32.164Z,94904.61
2018-12-17T02:25:06.249Z,94899.50
2018-12-17T02:27:40.095Z,94897.73
2018-12-17T02:30:13.175Z,94904.17
2018-12-17T02:32:48.163Z,94904.64
2018-12-17T02:35:24.934Z,94906.34
2018-12-17T02:37:58.587Z,94903.82
2018-12-17T02:40:32.061Z,94903.69
2018-12-17T02:43:05.835Z,94904.97
2018-12-17T02:45:40.127Z,94902.20
2018-12-17T02:48:14.957Z,94899.41
2018-12-17T02:50:49.108Z,94906.52
2018-12-17T02:53:22.820Z,94902.20
2018-12-17T02:55:56.401Z,94900.12
2018-12-17T02:58:31.284Z,94907.69
2018-12-17T03:01:06.250Z,94907.17
2018-12-17T03:03:41.643Z,94903.61
2018-12-17T03:06:15.561Z,94900.05
2018-12-17T03:08:50.493Z,94893.27
2018-12-17T03:11:23.887Z,94891.70
2018-12-17T03:13:58.121Z,94896.73
2018-12-17T03:16:32.699Z,94887.36
2018-12-17T03:19:06.735Z,94890.98
2018-12-17T03:21:40.854Z,94893.52
2018-12-17T03:24:15.891Z,94897.80
2018-12-17T03:26:49.959Z,94892.05
2018-12-17T03:29:25.568Z,94895.28
2018-12-17T03:31:59.949Z,94896.31
2018-12-17T03:34:32.971Z,94890.87
2018-12-17T03:37:07.173Z,94895.26
2018-12-17T03:39:41.955Z,94893.30
2018-12-17T03:42:14.821Z,94898.63
2018-12-17T03:44:49.494Z,94902.27
2018-12-17T03:47:23.901Z,94908.08
2018-12-17T03:49:58.451Z,94917.88
2018-12-17T03:52:31.907Z,94913.52
2018-12-17T03:55:05.024Z,94915.94
2018-12-17T03:57:40.076Z,94916.27
2018-12-17T04:00:14.175Z,94922.58
2018-12-17T04:02:48.930Z,94921.56
2018-12-17T04:05:23.550Z,94921.74
2018-12-17T04:07:57.350Z,94921.73
2018-12-17T04:10:32.750Z,94916.44
2018-12-17T04:13:06.869Z,94919.69
2018-12-17T04:15:42.392Z,94921.42
2018-12-17T04:18:16.791Z,94923.32
2018-12-17T04:20:50.574Z,94925.73
2018-12-17T04:23:26.149Z,94922.36
2018-12-17T04:26:01.565Z,94927.23
2018-12-17T04:28:36.193Z,94926.11
2018-12-17T04:31:11.387Z,94931.44
2018-12-17T04:33:45.953Z,94937.55
2018-12-17T04:36:19.921Z,94934.16
2018-12-17T04:38:55.448Z,94935.78
2018-12-17T04:41:30.483Z,94932.87
2018-12-17T04:44:05.970Z,94929.37
2018-12-17T04:46:39.644Z,94930.81
2018-12-17T04:49:14.006Z,94937.72
2018-12-17T04:51:48.832Z,94928.84
2018-12-17T04:54:22.303Z,94929.52
2018-12-17T04:56:57.563Z,94932.22
2018-12-17T04:59:32.804Z,94926.71
2018-12-17T05:02:07.222Z,94937.31
2018-12-17T05:04:41.958Z,94945.67
2018-12-17T05:07:16.040Z,94944.06
2018-12-17T05:09:50.413Z,94937.30
2018-12-17T05:12:24.931Z,94935.34
2018-12-17T05:14:58.618Z,94942.23
2018-12-17T05:17:32.050Z,94938.77
2018-12-17T05:20:06.224Z,94936.85
2018-12-17T05:22:40.184Z,94938.79
2018-12-17T05:25:13.522Z,94936.21
2018-12-17T05:27:49.050Z,94934.58
2018-12-17T05:30:23.294Z,94940.84
2018-12-17T05:32:57.611Z,94935.88
2018-12-17T05:35:33.236Z,94939.47
2018-12-17T05:38:08.663Z,94936.75
2018-12-17T05:40:43.441Z,94938.05
2018-12-17T05:43:15.532Z,94936.66
2018-12-17T05:45:47.717Z,94931.50
2018-12-17T05:48:19.917Z,94928.73
2018-12-17T05:50:53.023Z,94931.96
2018-12-17T05:53:25.775Z,94934.52
2018-12-17T05:55:57.789Z,94933.89
2018-12-17T05:58:29.803Z,94937.41
2018-12-17T06:01:01.875Z,94938.30
2018-12-17T06:03:34.240Z,94937.27
2018-12-17T06:06:06.336Z,94934.23
2018-12-17T06:08:38.408Z,94937.05
2018-12-17T06:11:10.934Z,94929.96
2018-12-17T06:13:42.879Z,94927.23
2018-12-17T06:16:15.235Z,94929.00
2018-12-17T06:18:47.317Z,94931.87
2018-12-17T06:21:20.592Z,94929.09
2018-12-17T06:23:52.573Z,94927.58
2018-12-17T06:26:24.569Z,94924.19
2018-12-17T06:28:57.073Z,94926.27
2018-12-17T06:31:28.980Z,94927.34
2018-12-17T06:34:02.249Z,94923.13
2018-12-17T06:36:35.344Z,94923.26
2018-12-17T06:39:09.632Z,94919.85
2018-12-17T06:41:41.976Z,94926.05
2018-12-17T06:44:15.170Z,94925.42
2018-12-17T06:46:47.249Z,94931.19
2018-12-17T06:49:19.351Z,94934.75
2018-12-17T06:51:52.127Z,94934.28
2018-12-17T06:54:24.452Z,94939.72
2018-12-17T06:56:56.617Z,94941.50
2018-12-17T06:59:28.708Z,94927.60
2018-12-17T07:02:01.431Z,94933.19
2018-12-17T07:04:33.385Z,94938.01
2018-12-17T07:07:05.418Z,94936.23
2018-12-17T07:09:38.358Z,94939.72
2018-12-17T07:12:10.611Z,94944.87
2018-12-17T07:14:43.388Z,94946.73
2018-12-17T07:17:15.289Z,94943.00
2018-12-17T07:19:47.494Z,94937.34
2018-12-17T07:22:19.620Z,94941.05
2018-12-17T07:24:51.593Z,94940.83
2018-12-17T07:27:23.726Z,94941.56
2018-12-17T07:29:55.538Z,94940.41
2018-12-17T07:32:27.348Z,94938.80
2018-12-17T07:34:59.713Z,94939.87
2018-12-17T07:37:31.959Z,94941.32
2018-12-17T07:40:04.226Z,94935.02
2018-12-17T07:42:36.564Z,94943.67
2018-12-17T07:45:09.279Z,94932.48
2018-12-17T07:47:41.284Z,94925.27
2018-12-17T07:50:13.619Z,94933.41
2018-12-17T07:52:45.582Z,94926.00
2018-12-17T07:55:17.810Z,94927.48
2018-12-17T07:57:49.654Z,94933.34
2018-12-17T08:00:21.789Z,94930.69
2018-12-17T08:02:53.742Z,94934.63
2018-12-17T08:05:25.838Z,94933.02
2018-12-17T08:07:57.791Z,94930.27
2018-12-17T08:10:29.836Z,94925.55
2018-12-17T08:13:02.742Z,94937.33
2018-12-17T08:15:35.069Z,94938.28
2018-12-17T08:18:26.564Z,94937.95
2018-12-17T08:20:58.750Z,94937.33
2018-12-17T08:23:32.110Z,94931.52
2018-12-17T08:26:04.158Z,94926.52
2018-12-17T08:28:36.081Z,94923.16
2018-12-17T08:31:08.574Z,94921.77
2018-12-17T08:33:40.952Z,94922.88
2018-12-17T08:36:13.129Z,94920.64
2018-12-17T08:38:45.529Z,94919.60
2018-12-17T08:41:18.370Z,94910.02
2018-12-17T08:43:50.479Z,94911.32
2018-12-17T08:46:23.064Z,94910.86
2018-12-17T08:48:55.584Z,94905.95
2018-12-17T08:51:28.051Z,94899.95
2018-12-17T08:54:00.911Z,94913.76
2018-12-17T08:56:33.306Z,94903.34
2018-12-17T08:59:05.365Z,94896.98
2018-12-17T09:01:37.649Z,94897.92
2018-12-17T09:04:09.939Z,94900.13
2018-12-17T09:06:41.834Z,94895.89
2018-12-17T09:09:13.744Z,94895.42
2018-12-17T09:11:46.710Z,94894.86
2018-12-17T09:14:19.624Z,94888.00
2018-12-17T09:16:51.977Z,94894.72
2018-12-17T09:19:24.086Z,94884.98
2018-12-17T09:21:55.979Z,94895.31
2018-12-17T09:24:28.041Z,94888.80
2018-12-17T09:27:00.850Z,94894.14
2018-12-17T09:29:32.745Z,94894.89
2018-12-17T09:32:05.250Z,94886.95
2018-12-17T09:34:37.875Z,94886.70
2018-12-17T09:37:10.097Z,94883.57
2018-12-17T09:39:45.346Z,94883.11
2018-12-17T09:42:18.028Z,94882.16
2018-12-17T09:44:51.458Z,94879.07
2018-12-17T09:47:23.833Z,94878.31
2018-12-17T09:49:55.849Z,94879.02
2018-12-17T09:52:28.443Z,94876.96
2018-12-17T09:55:00.898Z,94876.16
2018-12-17T09:57:33.255Z,94869.83
2018-12-17T10:00:06.331Z,94871.51
2018-12-17T10:02:38.542Z,94869.70
2018-12-17T10:05:10.673Z,94860.23
2018-12-17T10:07:43.873Z,94863.18
2018-12-17T10:10:15.897Z,94854.95
2018-12-17T10:12:48.514Z,94851.39
2018-12-17T10:15:20.621Z,94846.45
2018-12-17T10:17:52.855Z,94842.81
2018-12-17T10:20:24.953Z,94843.92
2018-12-17T10:22:57.255Z,94840.08
2018-12-17T10:25:29.572Z,94837.53
2018-12-17T10:28:03.004Z,94831.76
2018-12-17T10:30:35.343Z,94835.23
2018-12-17T10:33:07.484Z,94832.55
2018-12-17T10:35:39.642Z,94829.48
2018-12-17T10:38:11.757Z,94830.17
2018-12-17T10:40:44.031Z,94831.20
2018-12-17T10:43:16.213Z,94821.41
2018-12-17T10:45:48.562Z,94817.80
2018-12-17T10:48:20.407Z,94821.47
2018-12-17T10:50:52.345Z,94819.21
2018-12-17T10:53:24.669Z,94815.75
2018-12-17T10:55:56.934Z,94810.77
2018-12-17T10:58:29.753Z,94806.11
2018-12-17T11:01:06.714Z,94804.59
2018-12-17T11:03:46.637Z,94804.84
2018-12-17T11:06:22.473Z,94804.68
2018-12-17T11:08:54.368Z,94800.95
2018-12-17T11:11:26.587Z,94804.96
2018-12-17T11:13:58.482Z,94799.34
2018-12-17T11:16:30.536Z,94793.35
2018-12-17T11:19:02.362Z,94790.48
2018-12-17T11:21:34.716Z,94778.80
2018-12-17T11:24:07.131Z,94774.06
2018-12-17T11:26:39.310Z,94772.44
2018-12-17T11:29:11.454Z,94764.67
2018-12-17T11:31:43.585Z,94760.80
2018-12-17T11:34:15.879Z,94757.53
2018-12-17T11:36:48.692Z,94766.92
2018-12-17T11:39:20.961Z,94768.26
2018-12-17T11:41:52.981Z,94766.77
2018-12-17T11:44:24.966Z,94770.44
2018-12-17T11:46:56.896Z,94781.20
2018-12-17T11:49:28.972Z,94785.45
2018-12-17T11:52:01.372Z,94784.53
2018-12-17T11:54:33.234Z,94786.25
2018-12-17T11:57:55.701Z,94784.10
2018-12-17T12:00:28.573Z,94783.32
2018-12-17T12:03:01.214Z,94782.05
2018-12-17T12:05:33.711Z,94778.81
2018-12-17T12:08:06.324Z,94785.64
2018-12-17T12:10:38.439Z,94785.48
2018-12-17T12:13:10.613Z,94786.23
2018-12-17T12:15:42.501Z,94785.98
2018-12-17T12:18:15.125Z,94788.67
2018-12-17T12:20:48.512Z,94789.20
2018-12-17T12:23:20.430Z,94782.95
2018-12-17T12:25:52.689Z,94782.75
2018-12-17T12:28:24.494Z,94787.55
2018-12-17T12:31:00.464Z,94779.84
2018-12-17T12:33:31.625Z,94787.70
2018-12-17T12:36:04.670Z,94781.89
2018-12-17T12:38:37.058Z,94783.62
2018-12-17T12:41:09.389Z,94794.64
2018-12-17T12:43:42.321Z,94798.05
2018-12-17T12:46:14.362Z,94791.44
2018-12-17T12:48:46.676Z,94787.96
2018-12-17T12:51:19.236Z,94782.97
2018-12-17T12:53:51.721Z,94782.48
2018-12-17T12:56:25.254Z,94780.95
2018-12-17T12:58:57.688Z,94784.92
2018-12-17T13:01:29.845Z,94791.14
2018-12-17T13:04:02.368Z,94794.63
2018-12-17T13:06:34.735Z,94787.02
2018-12-17T13:09:08.721Z,94785.10
2018-12-17T13:11:41.048Z,94781.77
2018-12-17T13:14:13.192Z,94794.52
2018-12-17T13:16:45.827Z,94787.70
2018-12-17T13:19:18.603Z,94787.37
2018-12-17T13:21:51.504Z,94794.14
2018-12-17T13:24:23.727Z,94795.17
2018-12-17T13:26:55.826Z,94797.84
2018-12-17T13:29:28.422Z,94801.48
2018-12-17T13:32:01.123Z,94805.90
2018-12-17T13:34:33.777Z,94806.70
2018-12-17T13:37:05.983Z,94811.00
2018-12-17T13:39:38.858Z,94811.23
2018-12-17T13:42:11.252Z,94818.47
2018-12-17T13:44:43.449Z,94815.05
2018-12-17T13:47:15.912Z,94814.69
2018-12-17T13:49:48.034Z,94815.33
2018-12-17T13:52:25.203Z,94825.41
2018-12-17T13:54:57.539Z,94827.34
2018-12-17T13:57:30.079Z,94829.47
2018-12-17T14:00:01.995Z,94828.25
2018-12-17T14:02:35.010Z,94825.10
2018-12-17T14:05:07.858Z,94823.64
2018-12-17T14:07:39.798Z,94819.30
2018-12-17T14:10:18.140Z,94821.02
2018-12-17T14:12:50.153Z,94819.52
2018-12-17T14:15:25.513Z,94825.19
2018-12-17T14:17:57.501Z,94827.28
2018-12-17T14:20:34.929Z,94828.31
2018-12-17T14:23:07.941Z,94834.37
2018-12-17T14:25:40.316Z,94832.53
2018-12-17T14:28:12.875Z,94836.59
2018-12-17T14:30:45.696Z,94847.99
2018-12-17T14:33:18.219Z,94840.45
2018-12-17T14:35:55.171Z,94846.72
2018-12-17T14:38:27.631Z,94854.29
2018-12-17T14:40:59.918Z,94849.37
2018-12-17T14:43:32.104Z,94856.24
2018-12-17T14:46:04.741Z,94861.19
2018-12-17T14:48:37.075Z,94866.98
2018-12-17T14:51:09.701Z,94868.55
2018-12-17T14:53:41.979Z,94883.27
2018-12-17T14:56:14.596Z,94875.41
2018-12-17T14:58:47.760Z,94876.94
2018-12-17T15:01:20.439Z,94880.82
2018-12-17T15:03:52.982Z,94877.02
2018-12-17T15:06:25.348Z,94882.82
2018-12-17T15:09:04.008Z,94877.78
2018-12-17T15:11:36.971Z,94879.59
2018-12-17T15:14:09.129Z,94876.12
2018-12-17T15:16:41.688Z,94878.14
2018-12-17T15:19:14.618Z,94875.73
2018-12-17T15:21:47.154Z,94882.33
2018-12-17T15:24:20.700Z,94881.98
2018-12-17T15:26:53.609Z,94888.84
2018-12-17T15:29:26.055Z,94890.19
2018-12-17T15:31:58.584Z,94890.41
2018-12-17T15:34:30.967Z,94886.98
2018-12-17T15:37:03.147Z,94883.87
2018-12-17T15:39:35.490Z,94886.01
2018-12-17T15:42:08.774Z,94888.46
2018-12-17T15:44:41.169Z,94888.23
2018-12-17T15:47:13.415Z,94891.97
2018-12-17T15:49:45.498Z,94891.16
2018-12-17T15:52:18.901Z,94894.72
2018-12-17T15:54:51.346Z,94897.03
2018-12-17T15:57:23.842Z,94898.69
2018-12-17T15:59:56.306Z,94903.89
2018-12-17T16:02:29.413Z,94908.41
2018-12-17T16:05:01.466Z,94909.95
2018-12-17T16:07:33.534Z,94917.25
2018-12-17T16:10:06.842Z,94923.41
2018-12-17T16:12:39.176Z,94929.22
2018-12-17T16:15:11.776Z,94932.95
2018-12-17T16:17:44.123Z,94937.14
2018-12-17T16:20:16.219Z,94938.98
2018-12-17T16:22:49.845Z,94944.70
2018-12-17T16:25:22.243Z,94941.01
2018-12-17T16:27:55.039Z,94941.84
2018-12-17T16:30:27.646Z,94942.44
2018-12-17T16:33:00.159Z,94944.36
2018-12-17T16:35:32.503Z,94957.09
2018-12-17T16:38:05.167Z,94965.64
2018-12-17T16:40:38.745Z,94969.73
2018-12-17T16:43:12.019Z,94974.52
2018-12-17T16:45:44.926Z,94984.63
2018-12-17T16:48:17.846Z,94985.55
2018-12-17T16:50:50.317Z,94987.98
2018-12-17T16:53:22.585Z,94993.05
2018-12-17T16:55:55.251Z,94996.58
2018-12-17T16:58:27.969Z,94998.06
2018-12-17T17:01:00.375Z,94998.20
2018-12-17T17:03:33.938Z,94999.61
2018-12-17T17:06:06.180Z,94996.20
2018-12-17T17:08:39.042Z,94990.02
2018-12-17T17:11:11.640Z,94997.16
2018-12-17T17:13:44.234Z,94995.65
2018-12-17T17:16:16.723Z,94995.77
2018-12-17T17:18:49.318Z,94995.55
2018-12-17T17:21:21.739Z,94995.20
2018-12-17T17:23:54.070Z,94992.42
2018-12-17T17:26:26.764Z,94986.35
2018-12-17T17:28:59.621Z,94981.55
2018-12-17T17:31:31.674Z,94987.14
2018-12-17T17:34:04.096Z,94982.17
2018-12-17T17:36:36.642Z,94995.84
2018-12-17T17:39:10.164Z,94991.63
2018-12-17T17:41:42.486Z,94986.60
2018-12-17T17:44:14.736Z,94997.66
2018-12-17T17:46:47.369Z,95005.22
2018-12-17T17:49:19.836Z,95004.88
2018-12-17T17:51:51.783Z,95004.52
2018-12-17T17:54:23.813Z,95008.80
2018-12-17T17:56:57.307Z,95009.13
2018-12-17T17:59:29.386Z,95006.10
2018-12-17T18:02:01.881Z,95008.73
2018-12-17T18:04:34.038Z,95011.17
2018-12-17T18:07:07.477Z,95015.87
2018-12-17T18:09:40.189Z,95014.27
2018-12-17T18:12:13.977Z,95013.90
2018-12-17T18:14:46.499Z,95020.00
2018-12-17T18:17:20.624Z,95022.03
2018-12-17T18:19:52.822Z,95028.55
2018-12-17T18:22:25.654Z,95029.02
2018-12-17T18:24:57.779Z,95026.77
2018-12-17T18:27:30.200Z,95031.73
2018-12-17T18:30:02.295Z,95033.04
2018-12-17T18:32:36.595Z,95034.81
2018-12-17T18:35:09.034Z,95040.25
2018-12-17T18:37:41.347Z,95041.52
2018-12-17T18:40:13.812Z,95041.28
2018-12-17T18:42:46.227Z,95040.63
2018-12-17T18:45:19.624Z,95045.49
2018-12-17T18:47:51.738Z,95053.55
2018-12-17T18:50:23.874Z,95044.14
2018-12-17T18:52:55.879Z,95049.33
2018-12-17T18:55:28.315Z,95050.22
2018-12-17T18:58:00.522Z,95050.61
2018-12-17T19:00:33.153Z,95052.08
2018-12-17T19:03:05.773Z,95059.24
2018-12-17T19:05:38.058Z,95053.60
2018-12-17T19:08:10.222Z,95057.03
2018-12-17T19:10:48.188Z,95061.26
2018-12-17T19:13:20.440Z,95054.33
2018-12-17T19:15:52.761Z,95065.59
2018-12-17T19:18:24.780Z,95067.06
2018-12-17T19:20:57.204Z,95061.63
2018-12-17T19:23:29.833Z,95058.97
2018-12-17T19:26:02.080Z,95070.44
2018-12-17T19:28:34.159Z,95083.34
2018-12-17T19:31:06.242Z,95086.41
2018-12-17T19:33:39.892Z,95086.08
2018-12-17T19:36:12.416Z,95089.98
2018-12-17T19:38:46.643Z,95085.80
2018-12-17T19:41:18.955Z,95088.03
2018-12-17T19:43:51.760Z,95089.19
2018-12-17T19:46:23.903Z,95097.83
2018-12-17T19:48:56.642Z,95097.86
2018-12-17T19:51:30.250Z,95098.03
2018-12-17T19:54:04.719Z,95105.13
2018-12-17T19:56:37.076Z,95111.39
2018-12-17T19:59:09.725Z,95111.99
2018-12-17T20:01:42.473Z,95112.48
2018-12-17T20:04:15.017Z,95114.56
2018-12-17T20:06:48.646Z,95122.48
2018-12-17T20:09:21.713Z,95116.23
2018-12-17T20:11:56.250Z,95118.44
2018-12-17T20:14:29.467Z,95116.53
2018-12-17T20:17:01.685Z,95125.23
2018-12-17T20:19:33.939Z,95124.75
2018-12-17T20:22:06.394Z,95128.12
2018-12-17T20:24:40.056Z,95129.90
2018-12-17T20:27:12.675Z,95132.31
2018-12-17T20:29:50.453Z,95130.55
2018-12-17T20:32:20.866Z,95132.02
2018-12-17T20:34:53.346Z,95134.94
2018-12-17T20:37:26.383Z,95146.52
2018-12-17T20:39:59.072Z,95140.88
2018-12-17T20:42:31.757Z,95136.70
2018-12-17T20:45:05.229Z,95140.25
2018-12-17T20:47:37.257Z,95142.31
2018-12-17T20:50:09.982Z,95147.95
2018-12-17T20:52:41.875Z,95154.41
2018-12-17T20:55:14.748Z,95155.67
2018-12-17T20:57:46.966Z,95151.81
2018-12-17T21:00:18.904Z,95152.81
2018-12-17T21:02:51.417Z,95156.34
2018-12-17T21:05:24.003Z,95159.27
2018-12-17T21:07:56.072Z,95163.59
2018-12-17T21:10:28.644Z,95158.56
2018-12-17T21:13:00.992Z,95162.78
2018-12-17T21:15:33.105Z,95163.10
2018-12-17T21:18:05.518Z,95169.24
2018-12-17T21:20:37.819Z,95172.77
2018-12-17T21:23:10.080Z,95180.00
2018-12-17T21:25:42.506Z,95179.39
2018-12-17T21:28:15.326Z,95181.47
2018-12-17T21:30:47.444Z,95187.62
2018-12-17T21:33:19.832Z,95187.15
2018-12-17T21:35:53.152Z,95181.03
2018-12-17T21:38:25.267Z,95178.13
2018-12-17T21:40:57.405Z,95184.73
2018-12-17T21:43:35.905Z,95186.18
2018-12-17T21:46:06.001Z,95187.66
2018-12-17T21:48:38.645Z,95195.70
2018-12-17T21:51:10.630Z,95187.31
2018-12-17T21:53:43.237Z,95186.98
2018-12-17T21:56:15.215Z,95186.98
2018-12-17T21:58:47.556Z,95185.55
2018-12-17T22:01:19.779Z,95187.46
2018-12-17T22:03:52.016Z,95175.39
2018-12-17T22:06:24.295Z,95176.52
2018-12-17T22:08:56.670Z,95177.64
2018-12-17T22:11:28.471Z,95183.92
2018-12-17T22:14:00.873Z,95186.19
2018-12-17T22:16:32.959Z,95180.39
2018-12-17T22:19:04.985Z,95183.13
2018-12-17T22:21:37.413Z,95173.16
2018-12-17T22:24:09.465Z,95174.76
2018-12-17T22:26:41.595Z,95177.03
2018-12-17T22:29:14.351Z,95175.58
2018-12-17T22:31:46.459Z,95170.91
2018-12-17T22:34:19.444Z,95168.97
2018-12-17T22:36:51.935Z,95165.28
2018-12-17T22:39:24.090Z,95164.31
2018-12-17T22:41:56.177Z,95164.94
2018-12-17T22:44:29.179Z,95159.48
2018-12-17T22:47:01.385Z,95159.31
2018-12-17T22:49:33.685Z,95153.98
2018-12-17T22:52:05.785Z,95150.12
2018-12-17T22:54:37.882Z,95155.11
2018-12-17T22:57:11.019Z,95169.75
2018-12-17T22:59:43.028Z,95163.78
2018-12-17T23:02:15.198Z,95155.24
2018-12-17T23:04:47.360Z,95152.00
2018-12-17T23:07:19.685Z,95158.09
2018-12-17T23:10:07.907Z,95159.20
2018-12-17T23:12:55.742Z,95157.25
2018-12-17T23:15:43.998Z,95159.34
2018-12-17T23:18:14.380Z,95152.62
2018-12-17T23:20:47.107Z,95147.25
2018-12-17T23:23:20.138Z,95151.64
2018-12-17T23:25:53.166Z,95151.95
2018-12-17T23:28:26.094Z,95148.89
2018-12-17T23:30:58.799Z,95145.56
2018-12-17T23:33:33.068Z,95149.09
2018-12-17T23:36:06.159Z,95135.72
2018-12-17T23:38:38.526Z,95137.13
2018-12-17T23:41:10.813Z,95137.16
2018-12-17T23:43:42.594Z,95131.19
2018-12-17T23:46:15.063Z,95133.27
2018-12-17T23:48:47.194Z,95141.30
2018-12-17T23:51:19.598Z,95141.80
2018-12-17T23:53:52.006Z,95140.17
2018-12-17T23:56:24.035Z,95141.44
2018-12-17T23:58:56.241Z,95137.23
